createdAt,value
2023-04-03T00:01:58.813Z,25.75
2023-04-03T00:07:02.318Z,24.23
2023-04-03T00:12:07.486Z,23.10
2023-04-03T00:17:11.011Z,23.77
2023-04-03T00:22:14.693Z,24.63
2023-04-03T00:27:19.588Z,26.40
2023-04-03T00:37:26.852Z,26.45
2023-04-03T00:42:31.717Z,24.10
2023-04-03T00:52:41.055Z,26.80
2023-04-03T00:57:47.373Z,27.75
2023-04-03T01:02:51.274Z,27.15
2023-04-03T01:07:55.768Z,25.50
2023-04-03T01:13:02.849Z,23.65
2023-04-03T01:18:06.567Z,22.13
2023-04-03T01:23:24.662Z,22.60
2023-04-03T01:28:32.356Z,23.73
2023-04-03T01:33:37.841Z,21.88
2023-04-03T01:38:41.597Z,22.15
2023-04-03T01:43:45.131Z,20.95
2023-04-03T01:48:51.310Z,21.23
2023-04-03T01:53:54.968Z,20.17
2023-04-03T01:58:58.428Z,21.35
2023-04-03T02:04:03.335Z,20.13
2023-04-03T02:14:10.501Z,18.73
2023-04-03T02:19:35.284Z,20.10
2023-04-03T02:29:43.580Z,21.48
2023-04-03T02:34:48.477Z,21.90
2023-04-03T02:44:55.030Z,20.20
2023-04-03T02:49:59.883Z,21.02
2023-04-03T03:00:09.043Z,19.42
2023-04-03T03:05:13.943Z,20.95
2023-04-03T03:10:17.680Z,18.95
2023-04-03T03:15:21.323Z,20.80
2023-04-03T03:20:26.149Z,18.90
2023-04-03T03:30:32.786Z,24.75
2023-04-03T03:35:38.062Z,25.50
2023-04-03T03:40:41.706Z,26.58
2023-04-03T03:45:45.836Z,23.83
2023-04-03T03:50:51.404Z,24.13
2023-04-03T03:55:54.885Z,21.65
2023-04-03T04:00:58.327Z,22.98
2023-04-03T04:06:03.207Z,22.52
2023-04-03T04:16:10.993Z,22.83
2023-04-03T04:21:15.856Z,21.90
2023-04-03T04:31:22.500Z,19.55
2023-04-03T04:36:27.465Z,21.45
2023-04-03T04:41:31.143Z,20.70
2023-04-03T04:46:34.777Z,17.70
2023-04-03T04:51:50.959Z,19.52
2023-04-03T04:56:55.724Z,17.73
2023-04-03T05:01:59.315Z,16.30
2023-04-03T05:07:04.214Z,16.35
2023-04-03T05:17:11.033Z,16.58
2023-04-03T05:22:16.227Z,15.85
2023-04-03T05:27:19.724Z,16.77
2023-04-03T05:32:23.278Z,16.08
2023-04-03T05:37:28.245Z,16.23
2023-04-03T05:42:32.120Z,17.10
2023-04-03T05:47:35.634Z,16.83
2023-04-03T05:52:45.399Z,17.23
2023-04-03T05:57:48.934Z,17.70
2023-04-03T06:02:52.791Z,18.17
2023-04-03T06:07:58.262Z,18.77
2023-04-03T06:13:01.853Z,17.27
2023-04-03T06:18:05.566Z,17.27
2023-04-03T06:23:11.539Z,18.25
2023-04-03T06:28:15.108Z,19.00
2023-04-03T06:33:18.682Z,19.05
2023-04-03T06:38:23.554Z,18.90
2023-04-03T06:43:27.274Z,18.70
2023-04-03T06:48:31.235Z,18.90
2023-04-03T06:53:36.297Z,17.77
2023-04-03T06:58:39.746Z,16.88
2023-04-03T07:03:43.769Z,18.57
2023-04-03T07:08:49.408Z,17.38
2023-04-03T07:13:53.289Z,18.17
2023-04-03T07:18:57.201Z,19.02
2023-04-03T07:24:02.214Z,18.50
2023-04-03T07:29:05.768Z,19.15
2023-04-03T07:34:09.256Z,16.03
2023-04-03T07:39:14.154Z,18.80
2023-04-03T07:44:17.625Z,18.23
2023-04-03T07:49:21.121Z,19.97
2023-04-03T07:54:26.091Z,19.77
2023-04-03T07:59:29.590Z,20.13
2023-04-03T08:04:33.337Z,18.30
2023-04-03T08:09:38.487Z,18.27
2023-04-03T08:14:42.014Z,14.32
2023-04-03T08:19:45.630Z,16.80
2023-04-03T08:24:58.548Z,16.73
2023-04-03T08:30:02.696Z,14.85
2023-04-03T08:35:07.189Z,16.40
2023-04-03T08:40:17.089Z,16.23
2023-04-03T08:45:37.964Z,14.57
2023-04-03T08:50:43.960Z,14.43
2023-04-03T08:55:51.579Z,13.05
2023-04-03T09:01:00.902Z,14.50
2023-04-03T09:06:09.291Z,14.02
2023-04-03T09:11:23.126Z,14.48
2023-04-03T09:16:45.691Z,13.45
2023-04-03T09:21:49.350Z,13.32
2023-04-03T09:27:01.011Z,12.97
2023-04-03T09:32:28.571Z,12.45
2023-04-03T09:37:42.030Z,13.82
2023-04-03T09:42:52.038Z,11.55
2023-04-03T09:48:15.420Z,12.07
2023-04-03T09:53:31.269Z,12.43
2023-04-03T09:58:49.652Z,13.88
2023-04-03T10:04:08.277Z,13.63
2023-04-03T10:09:22.140Z,12.45
2023-04-03T10:14:27.315Z,12.23
2023-04-03T10:19:43.719Z,12.20
2023-04-03T10:24:54.222Z,11.55
2023-04-03T10:30:06.361Z,12.23
2023-04-03T10:35:18.757Z,12.00
2023-04-03T10:40:34.090Z,12.15
2023-04-03T10:45:54.396Z,11.18
2023-04-03T10:51:05.460Z,12.60
2023-04-03T10:56:18.005Z,11.65
2023-04-03T11:01:27.890Z,11.63
2023-04-03T11:06:39.297Z,12.27
2023-04-03T11:11:45.285Z,11.52
2023-04-03T11:16:56.051Z,12.25
2023-04-03T11:22:06.312Z,11.75
2023-04-03T11:27:19.363Z,12.45
2023-04-03T11:33:16.559Z,11.48
2023-04-03T11:38:25.249Z,10.82
2023-04-03T11:43:30.893Z,10.63
2023-04-03T11:49:02.549Z,10.57
2023-04-03T11:54:47.618Z,11.38
2023-04-03T11:59:51.175Z,10.85
2023-04-03T12:05:30.715Z,10.50
2023-04-03T12:10:34.206Z,10.63
2023-04-03T12:15:58.279Z,11.98
2023-04-03T12:21:04.479Z,11.83
2023-04-03T12:26:24.463Z,13.02
2023-04-03T12:31:42.420Z,12.00
2023-04-03T12:37:01.465Z,12.57
2023-04-03T12:42:17.391Z,12.75
2023-04-03T12:47:34.168Z,11.98
2023-04-03T12:52:50.375Z,12.05
2023-04-03T12:57:54.703Z,10.85
2023-04-03T13:02:58.786Z,12.23
2023-04-03T13:08:07.216Z,9.80
2023-04-03T13:13:13.357Z,11.20
2023-04-03T13:18:32.238Z,11.50
2023-04-03T13:23:40.927Z,10.50
2023-04-03T13:28:45.090Z,10.30
2023-04-03T13:33:57.650Z,11.15
2023-04-03T13:39:06.243Z,10.50
2023-04-03T13:44:32.011Z,9.23
2023-04-03T13:49:41.424Z,9.18
2023-04-03T13:54:49.999Z,15.07
2023-04-03T13:59:54.101Z,9.82
2023-04-03T14:05:02.333Z,8.63
2023-04-03T14:10:09.241Z,9.88
2023-04-03T14:15:20.430Z,8.55
2023-04-03T14:20:26.813Z,9.27
2023-04-03T14:25:32.286Z,8.40
2023-04-03T14:30:36.751Z,8.18
2023-04-03T14:40:45.230Z,9.05
2023-04-03T14:45:49.080Z,8.35
2023-04-03T14:51:04.580Z,9.20
2023-04-03T14:56:16.800Z,9.55
2023-04-03T15:01:21.043Z,10.13
2023-04-03T15:06:24.612Z,10.43
2023-04-03T15:11:29.590Z,9.82
2023-04-03T15:16:33.062Z,11.05
2023-04-03T15:21:37.098Z,10.73
2023-04-03T15:26:42.720Z,11.52
2023-04-03T15:31:46.149Z,12.07
2023-04-03T15:36:49.839Z,12.93
2023-04-03T15:41:54.930Z,13.18
2023-04-03T15:46:58.456Z,14.27
2023-04-03T15:52:02.162Z,15.13
2023-04-03T15:57:07.068Z,15.25
2023-04-03T16:02:15.167Z,16.17
2023-04-03T16:07:18.720Z,15.07
2023-04-03T16:12:23.629Z,16.23
2023-04-03T16:17:28.741Z,15.38
2023-04-03T16:22:32.742Z,16.35
2023-04-03T16:27:37.688Z,16.83
2023-04-03T16:32:42.285Z,16.45
2023-04-03T16:37:45.803Z,14.85
2023-04-03T16:42:50.867Z,14.55
2023-04-03T16:47:54.347Z,14.85
2023-04-03T16:52:57.950Z,13.82
2023-04-03T16:58:02.826Z,12.93
2023-04-03T17:03:06.430Z,12.02
2023-04-03T17:08:14.161Z,11.98
2023-04-03T17:13:21.866Z,11.52
2023-04-03T17:18:25.400Z,10.85
2023-04-03T17:23:30.677Z,10.23
2023-04-03T17:28:35.576Z,10.98
2023-04-03T17:33:39.109Z,10.90
2023-04-03T17:38:42.651Z,11.10
2023-04-03T17:43:47.822Z,11.55
2023-04-03T17:48:51.625Z,10.95
2023-04-03T17:53:55.125Z,12.05
2023-04-03T17:59:00.187Z,12.35
2023-04-03T18:04:05.445Z,13.18
2023-04-03T18:09:11.458Z,13.23
2023-04-03T18:14:19.121Z,14.38
2023-04-03T18:19:23.714Z,13.35
2023-04-03T18:29:35.054Z,13.95
2023-04-03T18:34:38.489Z,13.77
2023-04-03T18:39:41.990Z,14.75
2023-04-03T18:44:49.735Z,13.80
2023-04-03T18:49:53.300Z,12.77
2023-04-03T18:54:57.048Z,14.63
2023-04-03T19:00:01.949Z,14.35
2023-04-03T19:05:06.824Z,14.63
2023-04-03T19:10:17.170Z,14.77
2023-04-03T19:15:24.576Z,15.75
2023-04-03T19:20:28.579Z,15.23
2023-04-03T19:25:32.126Z,16.00
2023-04-03T19:30:39.537Z,15.20
2023-04-03T19:35:43.341Z,15.65
2023-04-03T19:40:47.612Z,16.00
2023-04-03T19:45:53.710Z,14.93
2023-04-03T19:50:57.177Z,14.75
2023-04-03T19:56:00.964Z,16.27
2023-04-03T20:01:07.020Z,16.13
2023-04-03T20:06:10.689Z,16.27
2023-04-03T20:11:14.416Z,16.10
2023-04-03T20:16:22.531Z,17.05
2023-04-03T20:21:30.758Z,15.70
2023-04-03T20:26:37.391Z,16.05
2023-04-03T20:31:43.453Z,16.20
2023-04-03T20:36:49.676Z,16.58
2023-04-03T20:41:53.708Z,16.25
2023-04-03T20:46:59.218Z,18.38
2023-04-03T20:52:04.969Z,18.33
2023-04-03T20:57:08.438Z,17.58
2023-04-03T21:02:13.448Z,17.02
2023-04-03T21:07:54.636Z,17.17
2023-04-03T21:13:35.022Z,16.40
2023-04-03T21:19:08.761Z,16.85
2023-04-03T21:24:12.712Z,17.45
2023-04-03T21:29:16.828Z,17.33
2023-04-03T21:34:23.697Z,17.02
2023-04-03T21:39:27.325Z,18.13
2023-04-03T21:44:32.425Z,16.67
2023-04-03T21:49:37.358Z,17.40
2023-04-03T21:54:40.785Z,16.88
2023-04-03T21:59:45.468Z,16.73
2023-04-03T22:04:50.441Z,16.52
2023-04-03T22:14:57.076Z,16.15
2023-04-03T22:20:02.034Z,15.48
2023-04-03T22:25:07.509Z,15.50
2023-04-03T22:30:11.696Z,15.43
2023-04-03T22:35:16.709Z,15.60
2023-04-03T22:40:20.479Z,16.55
2023-04-03T22:45:23.951Z,17.20
2023-04-03T22:50:29.230Z,17.05
2023-04-03T22:55:32.789Z,18.73
2023-04-03T23:00:36.410Z,19.00
2023-04-03T23:05:42.195Z,18.58
2023-04-03T23:10:46.040Z,16.70
2023-04-03T23:15:54.402Z,17.67
2023-04-03T23:21:00.909Z,16.75
2023-04-03T23:26:04.488Z,17.48
2023-04-03T23:31:08.277Z,16.85
2023-04-03T23:36:16.281Z,17.23
2023-04-03T23:41:19.792Z,16.95
2023-04-03T23:46:23.343Z,16.65
2023-04-03T23:51:28.406Z,16.38
2023-04-03T23:56:32.384Z,17.00
